Аэропорт
Бухта Провидения (UHMD)

 UHMD / PVS
ЗЦ Хабаровск
Магадан (UHMM)
Магадан (UHMM)
 64.37810, -173.24300  / 72 ft

 UHMD 220600Z 11002MPS P1000 FEW013 BKN026 05/02 Q1034 RMK QBB400 MT OBSC QFE774/1033
 TAF UHMD 220141Z 2203/2209 04003MPS 6000 SCT006 BKN017 TEMPO 2206/2209 0500 FG VV002
uhmd_aip_1605
показать схемы
Название сценария Тип сценария Flight Simulator 9 Flight Simulator X Prepar3D v2 Prepar3D v3 Prepar3D v4 Prepar3D v5 xPlane
uhmd-scenery-fsx_p3d-1411 бесплатный


2020 © VATRUS division (Privacy Policy)